Halls, Tennessee
Current Conditions -  °F | °C
As of 9:55 AM on Saturday 20 Dec 2014 (Local Time) from KDYR Reporting Station
Overcast Overcast  
Wind Chill: 36°   Ceiling: 6500
Heat Index: 39°   Visibility: 10mi
Dew Point: 23°   Wind: 5mph
Humidity: 52%   Direction: 60°ENE
Pressure: 30.31"   Gusts: NA
Location:  35.88°N, 89.4°W
Report Text: KDYR 201555Z 06004KT 10SM OVC065 04/M05 A3031 RMK AO1
Loading
Personal Weather Stations






























Interactive Weather Map New forecast layout! Learn more

10-Day Weather Forecast

Advertisements
Track Severe Weather on mobile